Time;durP1;ratioP1;P1;durP2;ratioP2;P2;SDS_P1;SDS_P2;PMS_P1;PMS_P2;Temp;Humidity;BMP_temperature;BMP_pressure;BME280_temperature;BME280_humidity;BME280_pressure;Samples;Min_cycle;Max_cycle;Signal;HPM_P1;HPM_P2
2023/06/20 00:00:49;;;;;;;2.35;2.15;;;;;;;24.88;49.77;100273.81;4509714;28;20448;-68
2023/06/20 00:02:59;;;;;;;2.20;2.05;;;;;;;24.90;49.76;100282.91;4507914;28;20034;-69
2023/06/20 00:05:09;;;;;;;2.40;2.20;;;;;;;24.91;49.65;100284.53;4508002;28;20034;-69
2023/06/20 00:07:20;;;;;;;2.47;2.28;;;;;;;24.88;49.83;100279.59;4508323;28;20746;-67
2023/06/20 00:09:30;;;;;;;2.45;2.25;;;;;;;24.91;49.75;100278.78;4509258;28;20041;-69
2023/06/20 00:11:41;;;;;;;2.08;1.88;;;;;;;24.91;49.62;100281.66;4509414;28;20034;-68
2023/06/20 00:13:51;;;;;;;1.90;1.80;;;;;;;24.91;49.75;100281.66;4510530;28;20037;-69
2023/06/20 00:16:02;;;;;;;2.20;2.00;;;;;;;24.92;49.11;100270.94;4520036;28;20033;-69
2023/06/20 00:18:12;;;;;;;2.30;2.10;;;;;;;24.89;49.54;100275.44;4508432;28;20065;-69
2023/06/20 00:20:23;;;;;;;2.30;2.10;;;;;;;24.89;49.50;100278.34;4510461;28;20370;-69
2023/06/20 00:22:34;;;;;;;2.30;2.10;;;;;;;24.91;49.44;100272.19;4500026;28;20080;-69
2023/06/20 00:24:45;;;;;;;2.40;2.00;;;;;;;24.90;49.79;100282.06;4512034;28;21082;-69
2023/06/20 00:26:56;;;;;;;2.13;1.98;;;;;;;24.85;49.66;100263.06;4513355;28;20051;-69
2023/06/20 00:29:07;;;;;;;1.80;1.70;;;;;;;24.90;49.51;100268.47;4512429;28;21303;-69
2023/06/20 00:31:19;;;;;;;2.30;2.10;;;;;;;24.78;50.07;100247.78;4505837;28;20148;-69
2023/06/20 00:33:29;;;;;;;2.20;2.00;;;;;;;24.76;49.86;100239.53;4513930;28;20044;-69
2023/06/20 00:35:39;;;;;;;2.33;2.13;;;;;;;24.83;49.78;100256.88;4526735;28;20037;-69
2023/06/20 00:37:50;;;;;;;2.30;2.10;;;;;;;24.87;49.61;100263.50;4510856;28;20040;-69
2023/06/20 00:40:00;;;;;;;2.22;2.03;;;;;;;24.90;49.82;100268.47;4510314;28;20501;-68
2023/06/20 00:42:25;;;;;;;1.80;1.70;;;;;;;24.89;50.13;100257.31;4517059;28;20508;-68
2023/06/20 00:44:35;;;;;;;2.20;2.00;;;;;;;24.87;50.11;100246.19;4511654;28;20042;-69
2023/06/20 00:46:46;;;;;;;2.05;1.88;;;;;;;24.90;50.13;100250.31;4511840;28;20071;-68
2023/06/20 00:48:56;;;;;;;2.00;1.80;;;;;;;24.91;49.97;100249.09;4510706;28;20054;-69
2023/06/20 00:51:07;;;;;;;2.00;1.90;;;;;;;24.91;49.76;100255.66;4511891;28;20584;-69
2023/06/20 00:53:17;;;;;;;1.92;1.83;;;;;;;24.89;49.79;100251.56;4516641;28;20042;-69
2023/06/20 00:55:28;;;;;;;2.20;2.00;;;;;;;24.88;49.55;100250.72;4510291;28;20037;-69
2023/06/20 00:57:42;;;;;;;1.98;1.88;;;;;;;24.90;49.63;100256.06;4512549;28;20026;-68
2023/06/20 00:59:52;;;;;;;1.92;1.70;;;;;;;24.88;50.02;100247.81;4512265;28;21160;-69
2023/06/20 01:02:03;;;;;;;2.05;1.90;;;;;;;24.90;50.06;100256.06;4511012;28;20191;-69
2023/06/20 01:04:14;;;;;;;1.90;1.80;;;;;;;24.89;49.88;100255.25;4511017;28;20116;-68
2023/06/20 01:06:54;;;;;;;1.95;1.85;;;;;;;24.88;49.72;100247.81;4508086;28;20149;-69
2023/06/20 01:09:28;;;;;;;2.00;1.90;;;;;;;24.89;50.00;100252.34;4518068;28;20108;-69
2023/06/20 01:12:06;;;;;;;2.08;1.88;;;;;;;24.87;49.78;100251.97;4510740;28;20076;-69
2023/06/20 01:14:36;;;;;;;2.10;1.90;;;;;;;24.90;50.09;100245.38;4511753;28;20773;-67
2023/06/20 01:16:58;;;;;;;1.83;1.73;;;;;;;24.90;50.07;100247.41;4513452;28;20091;-69
2023/06/20 01:19:24;;;;;;;1.92;1.83;;;;;;;24.88;50.05;100242.06;4509521;28;20108;-69
2023/06/20 01:21:41;;;;;;;1.92;1.80;;;;;;;24.89;50.39;100248.66;4509834;28;20787;-69
2023/06/20 01:24:00;;;;;;;1.80;1.70;;;;;;;24.88;50.54;100256.50;4505830;28;20030;-69
2023/06/20 01:26:20;;;;;;;1.90;1.70;;;;;;;24.85;50.48;100245.75;4510545;28;21288;-69
2023/06/20 01:28:54;;;;;;;2.20;1.90;;;;;;;24.89;50.50;100254.44;4511928;28;20038;-69
2023/06/20 01:31:11;;;;;;;2.00;1.90;;;;;;;24.86;50.37;100255.25;4510135;28;20037;-69
2023/06/20 01:33:28;;;;;;;1.70;1.60;;;;;;;24.89;50.48;100257.31;4509007;28;20124;-69
2023/06/20 01:35:42;;;;;;;1.92;1.83;;;;;;;24.89;50.45;100258.13;4511730;28;20063;-69
2023/06/20 01:37:59;;;;;;;2.20;2.10;;;;;;;24.84;50.65;100244.09;4511460;28;20333;-68
2023/06/20 01:40:12;;;;;;;1.98;1.80;;;;;;;24.84;50.89;100246.16;4511244;28;20076;-69
2023/06/20 01:42:26;;;;;;;1.98;1.88;;;;;;;24.86;50.47;100253.16;4510974;28;20640;-69
2023/06/20 01:44:39;;;;;;;2.00;1.90;;;;;;;24.84;50.49;100246.16;4506592;28;20152;-69
2023/06/20 01:46:51;;;;;;;2.22;1.88;;;;;;;24.87;50.52;100251.13;4510254;28;20040;-68
2023/06/20 01:49:03;;;;;;;2.10;1.90;;;;;;;24.83;50.56;100236.66;4508951;28;20026;-69
2023/06/20 01:51:15;;;;;;;1.90;1.80;;;;;;;24.81;50.89;100236.25;4509604;28;20603;-69
2023/06/20 01:53:27;;;;;;;1.90;1.80;;;;;;;24.86;51.18;100241.63;4504671;28;20970;-69
2023/06/20 01:55:41;;;;;;;1.80;1.70;;;;;;;24.86;51.45;100235.03;4507342;28;20159;-69
2023/06/20 01:57:54;;;;;;;1.90;1.80;;;;;;;24.86;51.35;100235.03;4509454;28;20667;-69
2023/06/20 02:00:26;;;;;;;1.90;1.80;;;;;;;24.86;51.17;100232.97;4508231;28;20608;-69
2023/06/20 02:02:37;;;;;;;2.10;1.90;;;;;;;24.86;50.73;100226.38;4510914;28;20540;-69
2023/06/20 02:04:48;;;;;;;2.10;2.00;;;;;;;24.85;50.55;100218.94;4509890;28;20974;-68
2023/06/20 02:07:02;;;;;;;2.10;1.90;;;;;;;24.87;50.30;100220.19;4509351;28;20026;-69
2023/06/20 02:09:14;;;;;;;2.28;2.08;;;;;;;24.83;50.33;100221.41;4508721;28;20033;-69
2023/06/20 02:11:27;;;;;;;2.10;2.00;;;;;;;24.86;50.29;100221.41;4524605;28;20033;-69
2023/06/20 02:13:37;;;;;;;2.00;1.90;;;;;;;24.85;50.50;100219.75;4493256;28;20113;-69
2023/06/20 02:15:55;;;;;;;1.98;1.88;;;;;;;24.87;50.54;100214.44;4499478;28;20109;-68
2023/06/20 02:18:05;;;;;;;2.13;1.90;;;;;;;24.85;50.28;100216.03;4510869;28;20037;-69
2023/06/20 02:20:16;;;;;;;1.88;1.77;;;;;;;24.84;50.46;100218.13;4510423;28;20816;-69
2023/06/20 02:22:27;;;;;;;1.80;1.70;;;;;;;24.83;49.81;100210.69;4510382;28;20128;-69
2023/06/20 02:24:38;;;;;;;1.90;1.80;;;;;;;24.82;49.57;100209.03;4510215;28;21234;-69
2023/06/20 02:26:51;;;;;;;2.22;2.03;;;;;;;24.85;50.39;100219.75;4510009;28;20600;-68
2023/06/20 02:29:06;;;;;;;1.80;1.70;;;;;;;24.84;50.39;100212.34;4508203;28;20042;-69
2023/06/20 02:31:20;;;;;;;1.90;1.80;;;;;;;24.87;50.42;100207.81;4511502;28;20068;-69
2023/06/20 02:33:32;;;;;;;1.80;1.70;;;;;;;24.86;50.00;100206.97;4509714;28;20634;-69
2023/06/20 02:35:45;;;;;;;1.80;1.70;;;;;;;24.81;49.84;100198.72;4512140;28;21459;-69
2023/06/20 02:37:58;;;;;;;1.70;1.60;;;;;;;24.83;49.99;100204.09;4511014;28;20560;-69
2023/06/20 02:40:10;;;;;;;1.80;1.70;;;;;;;24.87;49.87;100211.53;4526107;28;20041;-69
2023/06/20 02:42:20;;;;;;;1.90;1.80;;;;;;;24.85;49.95;100205.34;4508582;28;20683;-68
2023/06/20 02:44:32;;;;;;;1.90;1.80;;;;;;;24.74;50.01;100187.13;4515040;28;20063;-69
2023/06/20 02:47:01;;;;;;;1.95;1.75;;;;;;;24.86;49.87;100209.06;4510436;28;21280;-68
2023/06/20 02:49:46;;;;;;;1.70;1.60;;;;;;;24.85;49.50;100207.38;4510460;28;20557;-68
2023/06/20 02:52:09;;;;;;;1.80;1.70;;;;;;;24.82;49.68;100203.25;4515123;28;20217;-69
2023/06/20 02:54:28;;;;;;;1.70;1.60;;;;;;;24.82;49.54;100203.25;4508766;28;20612;-69
2023/06/20 02:56:41;;;;;;;1.85;1.75;;;;;;;24.85;49.73;100208.22;4507026;28;21222;-69
2023/06/20 02:58:54;;;;;;;2.00;1.80;;;;;;;24.84;49.75;100218.13;4525394;28;20679;-69
2023/06/20 03:01:05;;;;;;;1.80;1.70;;;;;;;24.83;49.83;100210.69;4509195;28;20956;-69
2023/06/20 03:03:30;;;;;;;1.92;1.83;;;;;;;24.83;49.64;100207.78;4499320;28;21276;-69
2023/06/20 03:05:42;;;;;;;1.98;1.77;;;;;;;24.85;49.70;100214.00;4508814;28;20037;-69
2023/06/20 03:07:55;;;;;;;1.80;1.70;;;;;;;24.84;49.52;100215.25;4511059;28;20041;-69
2023/06/20 03:10:07;;;;;;;1.95;1.83;;;;;;;24.83;49.46;100216.44;4507474;28;20042;-69
2023/06/20 03:12:18;;;;;;;2.10;1.90;;;;;;;24.81;49.81;100210.28;4509789;28;20168;-68
2023/06/20 03:14:31;;;;;;;1.90;1.80;;;;;;;24.84;49.94;100218.13;4508065;28;20117;-69
2023/06/20 03:16:44;;;;;;;2.00;1.90;;;;;;;24.84;49.87;100221.00;4491889;28;20038;-71
2023/06/20 03:18:54;;;;;;;1.90;1.80;;;;;;;24.79;50.01;100215.63;4508653;28;20048;-71
2023/06/20 03:21:05;;;;;;;1.88;1.77;;;;;;;24.82;50.21;100226.34;4507189;28;20045;-70
2023/06/20 03:23:16;;;;;;;1.77;1.67;;;;;;;24.82;49.95;100232.13;4514875;28;20026;-71
2023/06/20 03:25:27;;;;;;;1.80;1.70;;;;;;;24.80;50.41;100223.03;4498889;28;20034;-71
2023/06/20 03:27:38;;;;;;;1.77;1.67;;;;;;;24.78;50.77;100227.56;4524527;28;20105;-70
2023/06/20 03:29:49;;;;;;;1.80;1.70;;;;;;;24.72;51.27;100218.47;4511538;28;20037;-71
2023/06/20 03:31:59;;;;;;;1.83;1.73;;;;;;;24.79;51.47;100223.44;4516091;28;20037;-71
2023/06/20 03:34:10;;;;;;;1.70;1.60;;;;;;;24.76;51.63;100227.97;4510860;28;20052;-70
2023/06/20 03:36:20;;;;;;;1.92;1.83;;;;;;;24.78;52.06;100242.81;4509528;28;20030;-70
2023/06/20 03:38:31;;;;;;;2.03;1.92;;;;;;;24.77;52.17;100244.06;4513428;28;20056;-70
2023/06/20 03:40:42;;;;;;;1.92;1.83;;;;;;;24.77;52.46;100244.06;4508475;28;20161;-70
2023/06/20 03:42:53;;;;;;;1.90;1.80;;;;;;;24.78;52.12;100247.78;4514503;28;20033;-70
2023/06/20 03:45:05;;;;;;;1.80;1.70;;;;;;;24.78;52.62;100257.25;4509793;28;20037;-70
2023/06/20 03:47:17;;;;;;;2.03;1.70;;;;;;;24.76;52.85;100253.13;4509797;28;20187;-69
2023/06/20 03:49:28;;;;;;;1.80;1.70;;;;;;;24.74;53.16;100250.63;4509039;28;21093;-69
2023/06/20 03:51:39;;;;;;;1.90;1.80;;;;;;;24.75;53.10;100266.72;4509794;28;20026;-70
2023/06/20 03:53:50;;;;;;;2.95;1.70;;;;;;;24.71;53.30;100257.22;4523702;28;20119;-70
2023/06/20 03:56:02;;;;;;;1.98;1.88;;;;;;;24.76;53.15;100264.66;4506971;28;20033;-70
2023/06/20 03:58:14;;;;;;;1.75;1.65;;;;;;;24.76;53.27;100256.84;4508410;28;20832;-70
2023/06/20 04:00:26;;;;;;;2.10;1.90;;;;;;;24.73;52.79;100254.78;4507973;28;20044;-70
2023/06/20 04:02:36;;;;;;;2.00;1.80;;;;;;;24.77;53.24;100267.16;4515414;28;20171;-70
2023/06/20 04:04:49;;;;;;;1.90;1.80;;;;;;;24.77;53.83;100264.25;4503018;28;20144;-70
2023/06/20 04:07:00;;;;;;;1.95;1.85;;;;;;;24.71;54.38;100263.00;4505870;28;20148;-70
2023/06/20 04:09:10;;;;;;;1.95;1.85;;;;;;;24.74;54.42;100261.34;4516220;28;20021;-70
2023/06/20 04:11:22;;;;;;;1.83;1.73;;;;;;;24.76;54.33;100268.41;4508373;28;20064;-70
2023/06/20 04:13:32;;;;;;;2.00;1.90;;;;;;;24.76;54.28;100271.28;4515400;28;20033;-70
2023/06/20 04:15:43;;;;;;;1.92;1.83;;;;;;;24.65;54.27;100250.16;4512056;28;20045;-70
2023/06/20 04:17:55;;;;;;;2.10;1.90;;;;;;;24.64;54.36;100242.72;4512592;28;20109;-69
2023/06/20 04:20:11;;;;;;;2.58;2.10;;;;;;;24.76;54.54;100273.34;4511143;28;20050;-70
2023/06/20 04:22:26;;;;;;;1.90;1.80;;;;;;;24.76;55.09;100273.34;4510577;28;20872;-71
2023/06/20 04:24:37;;;;;;;1.90;1.80;;;;;;;24.75;54.42;100260.13;4509753;28;20042;-70
2023/06/20 04:26:47;;;;;;;1.90;1.80;;;;;;;24.72;54.99;100258.88;4524618;28;20056;-70
2023/06/20 04:28:58;;;;;;;2.00;1.90;;;;;;;24.76;55.16;100267.56;4514223;28;20037;-71
2023/06/20 04:31:11;;;;;;;1.90;1.80;;;;;;;24.75;55.13;100268.81;4508445;28;20034;-71
2023/06/20 04:33:25;;;;;;;2.20;2.00;;;;;;;24.76;55.72;100274.16;4510869;28;20033;-70
2023/06/20 04:35:40;;;;;;;2.50;2.30;;;;;;;24.75;55.79;100271.69;4514240;28;20033;-70
2023/06/20 04:37:52;;;;;;;2.03;1.80;;;;;;;24.74;55.89;100276.63;4525492;28;20143;-71
2023/06/20 04:40:06;;;;;;;2.28;2.10;;;;;;;24.73;55.81;100274.97;4502884;28;20040;-71
2023/06/20 04:42:16;;;;;;;1.95;1.85;;;;;;;24.76;55.61;100270.44;4519970;28;20083;-71
2023/06/20 04:44:27;;;;;;;1.90;1.80;;;;;;;24.71;55.73;100263.00;4513978;28;20416;-71
2023/06/20 04:46:38;;;;;;;2.00;1.90;;;;;;;24.72;55.79;100266.72;4513571;28;20596;-71
2023/06/20 04:48:48;;;;;;;2.10;2.00;;;;;;;24.69;56.32;100265.44;4496814;28;20026;-71
2023/06/20 04:50:59;;;;;;;1.90;1.80;;;;;;;24.72;56.46;100270.41;4508625;28;20038;-71
2023/06/20 04:53:09;;;;;;;2.00;1.90;;;;;;;24.75;56.63;100268.81;4515160;28;20021;-72
2023/06/20 04:55:20;;;;;;;2.10;1.90;;;;;;;24.69;56.07;100262.56;4509467;28;20249;-70
2023/06/20 04:57:33;;;;;;;2.40;2.20;;;;;;;24.68;56.47;100257.19;4514364;28;20097;-71
2023/06/20 04:59:45;;;;;;;2.17;1.95;;;;;;;24.73;56.38;100259.72;4509421;28;20083;-71
2023/06/20 05:01:55;;;;;;;2.20;2.00;;;;;;;24.73;56.57;100271.25;4508907;28;20124;-71
2023/06/20 05:04:06;;;;;;;2.00;1.90;;;;;;;24.74;56.67;100270.84;4513982;28;20099;-71
2023/06/20 05:06:19;;;;;;;2.13;2.03;;;;;;;24.70;56.70;100264.25;4507902;28;20196;-70
2023/06/20 05:08:31;;;;;;;2.00;1.90;;;;;;;24.71;56.43;100271.66;4504252;28;20264;-71
2023/06/20 05:10:42;;;;;;;2.30;2.10;;;;;;;24.74;56.26;100281.56;4508012;28;20045;-70
2023/06/20 05:12:52;;;;;;;2.10;1.98;;;;;;;24.69;56.46;100279.88;4514206;28;20469;-71
2023/06/20 05:15:03;;;;;;;2.00;1.90;;;;;;;24.70;56.62;100278.66;4517358;28;20099;-70
2023/06/20 05:17:13;;;;;;;2.28;2.10;;;;;;;24.70;56.78;100275.78;4509540;28;21153;-69
2023/06/20 05:19:24;;;;;;;2.28;2.10;;;;;;;24.71;56.61;100268.78;4511112;28;20049;-71
2023/06/20 05:21:35;;;;;;;1.73;1.63;;;;;;;24.76;56.66;100279.09;4509754;28;20068;-70
2023/06/20 05:23:45;;;;;;;1.60;1.50;;;;;;;24.75;56.09;100281.16;4509917;28;20604;-70
2023/06/20 05:25:55;;;;;;;2.03;1.90;;;;;;;24.77;55.69;100274.97;4510947;28;20132;-71
2023/06/20 05:28:06;;;;;;;2.10;1.90;;;;;;;24.73;55.64;100263.44;4512085;28;20060;-71
2023/06/20 05:30:16;;;;;;;1.60;1.50;;;;;;;24.76;55.48;100256.84;4507774;28;20080;-71
2023/06/20 05:32:27;;;;;;;1.85;1.75;;;;;;;24.77;55.01;100258.50;4510302;28;20025;-71
2023/06/20 05:34:38;;;;;;;1.90;1.80;;;;;;;24.74;54.70;100252.69;4510494;28;20137;-71
2023/06/20 05:36:49;;;;;;;1.70;1.60;;;;;;;24.74;54.68;100244.03;4518377;28;20599;-71
2023/06/20 05:38:59;;;;;;;1.90;1.80;;;;;;;24.79;54.66;100264.69;4509724;28;20060;-71
2023/06/20 05:41:14;;;;;;;2.10;1.80;;;;;;;24.78;54.45;100265.91;4509392;28;20462;-71
2023/06/20 05:43:24;;;;;;;1.90;1.70;;;;;;;24.74;54.19;100259.31;4509318;28;20033;-71
2023/06/20 05:45:35;;;;;;;1.60;1.50;;;;;;;24.76;54.32;100259.72;4508466;28;20038;-71
2023/06/20 05:47:45;;;;;;;2.03;1.88;;;;;;;24.80;54.32;100259.75;4509246;28;20026;-71
2023/06/20 05:49:57;;;;;;;2.00;1.90;;;;;;;24.77;54.39;100261.38;4509824;28;20036;-72
2023/06/20 05:52:08;;;;;;;2.30;2.10;;;;;;;24.75;54.66;100255.16;4508079;28;20543;-70
2023/06/20 05:54:22;;;;;;;1.90;1.80;;;;;;;24.75;55.00;100260.13;4509778;28;20044;-71
2023/06/20 05:56:33;;;;;;;2.00;1.90;;;;;;;24.77;55.15;100249.00;4508017;28;20038;-71
2023/06/20 05:58:43;;;;;;;1.95;1.85;;;;;;;24.77;55.51;100249.00;4506519;28;20049;-71
2023/06/20 06:00:54;;;;;;;2.10;1.98;;;;;;;24.79;56.20;100267.59;4514456;28;20453;-71
2023/06/20 06:03:04;;;;;;;1.90;1.80;;;;;;;24.79;55.42;100264.69;4510176;28;20822;-71
2023/06/20 06:05:15;;;;;;;2.20;2.00;;;;;;;24.74;55.61;100264.25;4508730;28;20036;-71
2023/06/20 06:07:25;;;;;;;2.00;1.90;;;;;;;24.79;55.57;100269.63;4511003;28;20498;-66
2023/06/20 06:09:36;;;;;;;2.20;2.00;;;;;;;24.81;55.97;100279.56;4509671;28;20041;-66
2023/06/20 06:11:46;;;;;;;2.20;1.92;;;;;;;24.78;56.00;100276.66;4508682;28;20021;-65
2023/06/20 06:13:57;;;;;;;2.30;1.90;;;;;;;24.78;55.47;100277.44;4509016;28;20033;-66
2023/06/20 06:16:08;;;;;;;2.20;2.00;;;;;;;24.82;56.37;100281.22;4509758;28;20037;-66
2023/06/20 06:18:18;;;;;;;2.30;2.10;;;;;;;24.78;56.65;100280.34;4510105;28;20029;-66
2023/06/20 06:20:29;;;;;;;2.40;2.20;;;;;;;24.77;56.94;100281.59;4510387;28;20201;-66
2023/06/20 06:22:40;;;;;;;2.30;2.10;;;;;;;24.79;56.85;100276.25;4510003;28;20033;-65
2023/06/20 06:24:53;;;;;;;2.10;1.98;;;;;;;24.82;56.94;100283.25;4509547;28;20034;-68
2023/06/20 06:27:04;;;;;;;1.92;1.83;;;;;;;24.82;57.05;100277.47;4510715;28;20551;-66
2023/06/20 06:29:15;;;;;;;2.45;2.25;;;;;;;24.74;57.31;100259.31;4517098;28;20552;-66
2023/06/20 06:31:29;;;;;;;2.38;2.17;;;;;;;24.79;56.82;100279.13;4511376;28;20033;-66
2023/06/20 06:33:41;;;;;;;2.20;2.00;;;;;;;24.80;56.47;100274.19;4509388;28;20630;-66
2023/06/20 06:35:55;;;;;;;2.20;2.00;;;;;;;24.80;56.77;100279.97;4510901;28;20446;-65
2023/06/20 06:38:06;;;;;;;2.00;1.90;;;;;;;24.78;57.12;100282.41;4511857;28;21644;-66
2023/06/20 06:40:16;;;;;;;2.00;1.90;;;;;;;24.80;57.15;100291.50;4512395;28;20045;-65
2023/06/20 06:42:27;;;;;;;1.80;1.70;;;;;;;24.77;57.08;100293.13;4509253;28;20500;-65
2023/06/20 06:44:38;;;;;;;2.13;1.95;;;;;;;24.84;56.64;100303.91;4507819;28;20184;-65
2023/06/20 06:46:48;;;;;;;2.10;1.90;;;;;;;24.84;56.63;100315.44;4498960;28;21019;-65
2023/06/20 06:48:59;;;;;;;2.08;1.88;;;;;;;24.87;56.96;100315.47;4509634;28;20022;-65
2023/06/20 06:51:09;;;;;;;2.33;2.13;;;;;;;24.86;57.41;100318.75;4507653;28;20029;-71
2023/06/20 06:53:20;;;;;;;2.10;2.00;;;;;;;24.86;57.98;100308.03;4509260;28;20497;-62
2023/06/20 06:55:30;;;;;;;2.10;1.90;;;;;;;24.89;58.40;100309.28;4510641;28;20130;-62
2023/06/20 06:57:41;;;;;;;2.30;2.10;;;;;;;24.89;58.66;100304.31;4510237;28;20045;-60
2023/06/20 06:59:51;;;;;;;2.28;2.08;;;;;;;24.90;58.58;100291.56;4511561;28;20129;-61
2023/06/20 07:02:02;;;;;;;2.38;2.17;;;;;;;24.89;58.35;100295.66;4508508;28;20824;-68
2023/06/20 07:04:14;;;;;;;2.17;1.98;;;;;;;24.93;58.88;100299.41;4497753;28;20042;-65
2023/06/20 07:06:24;;;;;;;2.05;1.92;;;;;;;24.88;59.05;100293.19;4509172;28;20037;-64
2023/06/20 07:08:35;;;;;;;1.95;1.85;;;;;;;24.85;59.97;100294.84;4507992;28;20080;-64
2023/06/20 07:10:47;;;;;;;2.20;2.03;;;;;;;24.93;60.03;100313.84;4511005;28;20041;-64
2023/06/20 07:12:57;;;;;;;2.28;2.08;;;;;;;24.88;59.76;100298.94;4510168;28;20033;-64
2023/06/20 07:15:08;;;;;;;2.20;2.00;;;;;;;24.81;60.35;100291.09;4509456;28;20030;-66
2023/06/20 07:17:19;;;;;;;2.20;2.00;;;;;;;24.89;59.33;100303.53;4514056;28;20033;-63
2023/06/20 07:19:29;;;;;;;1.90;1.80;;;;;;;24.92;59.64;100303.53;4509575;28;20049;-62
2023/06/20 07:21:39;;;;;;;2.05;1.95;;;;;;;24.94;58.37;100306.84;4509784;28;20504;-63
2023/06/20 07:23:50;;;;;;;2.05;1.90;;;;;;;24.95;58.24;100305.63;4507117;28;20033;-62
2023/06/20 07:26:01;;;;;;;1.80;1.70;;;;;;;24.95;58.07;100310.56;4506547;28;20941;-62
2023/06/20 07:28:11;;;;;;;2.05;1.90;;;;;;;24.94;59.13;100309.72;4508791;28;20030;-68
2023/06/20 07:30:21;;;;;;;2.20;1.98;;;;;;;24.92;59.70;100302.72;4506538;28;20037;-68
2023/06/20 07:32:32;;;;;;;2.28;2.10;;;;;;;24.89;60.34;100301.44;4509682;28;20041;-68
2023/06/20 07:34:42;;;;;;;2.00;1.90;;;;;;;24.83;61.45;100303.06;4510711;28;20638;-67
2023/06/20 07:36:53;;;;;;;1.95;1.85;;;;;;;24.82;61.45;100301.41;4506978;28;20131;-66
2023/06/20 07:39:03;;;;;;;2.30;2.10;;;;;;;24.82;62.08;100294.81;4505082;28;20052;-73
2023/06/20 07:41:14;;;;;;;2.00;1.90;;;;;;;24.83;61.58;100288.63;4508757;28;20176;-69
2023/06/20 07:43:24;;;;;;;2.22;2.03;;;;;;;24.88;61.21;100294.03;4504693;28;20168;-68
2023/06/20 07:45:36;;;;;;;2.30;2.10;;;;;;;24.86;62.58;100287.81;4506659;28;20133;-66
2023/06/20 07:47:46;;;;;;;2.40;2.20;;;;;;;24.85;61.56;100280.41;4507264;28;20113;-63
2023/06/20 07:49:57;;;;;;;2.38;2.17;;;;;;;24.83;61.43;100277.06;4508231;28;20073;-67
2023/06/20 07:52:09;;;;;;;2.42;2.17;;;;;;;24.73;62.04;100253.94;4512550;28;20121;-66
2023/06/20 07:54:19;;;;;;;2.58;2.38;;;;;;;24.84;63.15;100278.75;4523794;28;21075;-65
2023/06/20 07:56:30;;;;;;;2.80;2.22;;;;;;;24.82;63.62;100277.47;4508360;28;20017;-66
2023/06/20 07:58:41;;;;;;;2.50;2.30;;;;;;;24.81;63.31;100276.69;4507348;28;20121;-66
2023/06/20 08:00:52;;;;;;;2.33;2.13;;;;;;;24.81;63.37;100270.06;4507797;28;20352;-65
2023/06/20 08:03:02;;;;;;;2.10;1.95;;;;;;;24.74;63.25;100252.69;4510373;28;20044;-68
2023/06/20 08:05:13;;;;;;;2.45;2.25;;;;;;;24.80;62.09;100251.91;4505807;28;20141;-65
2023/06/20 08:07:23;;;;;;;2.33;2.13;;;;;;;24.81;61.84;100265.13;4507627;28;20875;-64
2023/06/20 08:09:33;;;;;;;2.47;2.28;;;;;;;24.79;62.50;100256.03;4506644;28;20040;-65
2023/06/20 08:11:44;;;;;;;2.50;2.30;;;;;;;24.79;62.85;100256.03;4507101;28;20481;-74
2023/06/20 08:13:54;;;;;;;2.50;2.30;;;;;;;24.82;62.70;100255.22;4506274;28;20047;-68
2023/06/20 08:16:05;;;;;;;2.63;2.42;;;;;;;24.82;62.35;100249.44;4505583;28;20458;-70
2023/06/20 08:18:15;;;;;;;2.40;2.20;;;;;;;24.83;62.63;100244.50;4507555;28;20108;-70
2023/06/20 08:20:26;;;;;;;2.40;2.20;;;;;;;24.76;61.38;100236.66;4506379;28;20041;-72
2023/06/20 08:22:36;;;;;;;2.50;2.30;;;;;;;24.79;62.17;100247.38;4490774;28;20026;-70
2023/06/20 08:24:47;;;;;;;2.38;2.17;;;;;;;24.77;62.03;100240.34;4514383;28;20249;-70
2023/06/20 08:26:57;;;;;;;2.63;2.42;;;;;;;24.73;62.07;100231.69;4508016;28;20072;-72
2023/06/20 08:29:08;;;;;;;2.25;2.13;;;;;;;24.74;62.25;100230.44;4508100;28;20576;-72
2023/06/20 08:31:18;;;;;;;2.47;2.28;;;;;;;24.77;62.00;100238.28;4508086;28;20714;-73
2023/06/20 08:33:29;;;;;;;1.80;1.70;;;;;;;24.89;61.69;100237.91;4506605;28;20605;-73
2023/06/20 08:35:39;;;;;;;2.05;1.90;;;;;;;24.93;61.25;100229.28;4512935;28;20073;-73
2023/06/20 08:37:50;;;;;;;1.88;1.77;;;;;;;24.98;61.20;100234.66;4510509;28;20033;-71
2023/06/20 08:40:00;;;;;;;1.70;1.60;;;;;;;25.01;61.03;100231.81;4510701;28;20545;-72
2023/06/20 08:42:11;;;;;;;1.80;1.70;;;;;;;25.01;60.75;100214.47;4508142;28;20143;-71
2023/06/20 08:44:21;;;;;;;1.67;1.58;;;;;;;25.07;60.57;100219.88;4511229;28;20108;-72
2023/06/20 08:46:32;;;;;;;1.70;1.60;;;;;;;25.00;60.38;100204.16;4510018;28;20069;-71
2023/06/20 08:48:43;;;;;;;1.67;1.58;;;;;;;24.95;57.51;100213.22;4509862;28;20033;-70
2023/06/20 08:50:53;;;;;;;1.48;1.38;;;;;;;25.04;60.59;100210.78;4511534;28;20578;-65
2023/06/20 08:53:06;;;;;;;1.42;1.33;;;;;;;25.14;60.37;100211.22;4511808;28;20056;-62
2023/06/20 08:55:16;;;;;;;1.58;1.48;;;;;;;25.16;60.01;100202.97;4510783;28;20649;-65
2023/06/20 08:57:27;;;;;;;1.52;1.42;;;;;;;25.19;59.48;100207.94;4511449;28;20434;-67
2023/06/20 08:59:37;;;;;;;1.40;1.30;;;;;;;25.20;58.99;100200.94;4508696;28;20050;-67
2023/06/20 09:01:48;;;;;;;1.48;1.38;;;;;;;25.23;58.22;100203.00;4509271;28;20034;-65
2023/06/20 09:04:02;;;;;;;1.60;1.50;;;;;;;25.25;57.43;100203.41;4509555;28;20034;-70
2023/06/20 09:06:12;;;;;;;1.40;1.30;;;;;;;25.23;56.84;100206.69;4512071;28;20040;-64
2023/06/20 09:08:23;;;;;;;1.50;1.40;;;;;;;25.20;56.83;100203.81;4511360;28;20049;-65
2023/06/20 09:10:33;;;;;;;1.30;1.20;;;;;;;25.19;56.85;100205.03;4510042;28;20120;-65
2023/06/20 09:12:52;;;;;;;1.40;1.30;;;;;;;25.19;56.15;100194.31;4512285;28;20034;-62
2023/06/20 09:15:03;;;;;;;1.15;1.10;;;;;;;25.25;56.03;100203.41;4511459;28;20025;-63
2023/06/20 09:17:14;;;;;;;1.30;1.20;;;;;;;25.20;55.75;100204.63;4510243;28;20037;-66
2023/06/20 09:19:24;;;;;;;1.40;1.30;;;;;;;25.14;56.04;100208.31;4509901;28;20046;-66
2023/06/20 09:21:39;;;;;;;1.50;1.40;;;;;;;25.10;55.46;100211.22;4515389;28;20030;-65
2023/06/20 09:24:01;;;;;;;1.38;1.27;;;;;;;25.10;56.05;100213.28;4511157;28;20034;-65
2023/06/20 09:26:16;;;;;;;1.20;1.20;;;;;;;25.12;56.09;100200.06;4509308;28;20429;-61
2023/06/20 09:28:32;;;;;;;1.33;1.23;;;;;;;25.22;55.55;100195.56;4509755;28;20041;-68
2023/06/20 09:30:45;;;;;;;1.40;1.30;;;;;;;25.34;54.45;100203.88;4510029;28;20596;-64
2023/06/20 09:33:01;;;;;;;1.30;1.20;;;;;;;25.36;53.78;100210.91;4510565;28;20215;-65
2023/06/20 09:35:15;;;;;;;;;;;;;;;25.35;53.08;100214.19;4509093;28;20038;-68
2023/06/20 09:37:26;;;;;;;1.38;1.27;;;;;;;25.29;52.97;100210.84;4509788;28;20611;-69
2023/06/20 09:39:36;;;;;;;1.48;1.38;;;;;;;25.27;53.44;100213.34;4511295;28;21284;-68
2023/06/20 09:41:49;;;;;;;1.35;1.25;;;;;;;25.23;53.27;100206.69;4513024;28;20053;-68
2023/06/20 09:44:00;;;;;;;1.30;1.20;;;;;;;25.24;52.84;100211.25;4509916;28;20038;-68
2023/06/20 09:46:10;;;;;;;1.30;1.20;;;;;;;25.20;52.52;100206.72;4511343;28;20502;-68
2023/06/20 09:48:21;;;;;;;1.40;1.30;;;;;;;25.17;53.24;100207.50;4511227;28;20509;-68
2023/06/20 09:50:32;;;;;;;1.27;1.17;;;;;;;25.19;53.07;100210.81;4510453;28;20037;-67
2023/06/20 09:52:46;;;;;;;1.40;1.30;;;;;;;25.22;53.05;100212.88;4509802;28;20038;-66
2023/06/20 09:55:00;;;;;;;1.20;1.10;;;;;;;25.14;53.00;100214.09;4510512;28;20133;-68
2023/06/20 09:57:16;;;;;;;1.20;1.10;;;;;;;25.20;53.49;100212.50;4509159;28;20041;-68
2023/06/20 09:59:27;;;;;;;1.25;1.15;;;;;;;25.20;52.91;100212.50;4509248;28;20608;-71
2023/06/20 10:01:40;;;;;;;1.15;1.10;;;;;;;25.17;53.19;100207.50;4509345;28;20263;-70
2023/06/20 10:03:52;;;;;;;1.30;1.20;;;;;;;25.16;52.62;100211.63;4510643;28;20037;-71
2023/06/20 10:06:03;;;;;;;1.58;1.27;;;;;;;25.11;52.79;100215.75;4510355;28;20037;-71
2023/06/20 10:08:16;;;;;;;1.40;1.30;;;;;;;25.08;52.42;100209.97;4509662;28;20070;-71
2023/06/20 10:10:26;;;;;;;1.90;1.20;;;;;;;24.97;52.51;100190.53;4508321;28;20304;-65
2023/06/20 10:12:39;;;;;;;1.40;1.30;;;;;;;25.07;52.92;100203.34;4509848;28;20021;-67
2023/06/20 10:14:50;;;;;;;1.20;1.10;;;;;;;25.04;52.53;100199.22;4509454;28;20115;-68